Wawanesa, Canada
Current Conditions -  °F | °C
As of 9:00 AM on Thursday 30 Oct 2014 (Local Time) from CYBR Reporting Station
Broken Clouds Broken Clouds  
Wind Chill: 20°   Ceiling: 2000
Heat Index: 30°   Visibility: 15mi
Dew Point: 23°   Wind: 13mph
Humidity: 75%   Direction: 360°N
Pressure: 30.35"   Gusts: NA
Location:  49.52°N, 99.68°W
Report Text: CYBR 301400Z 36011KT 15SM BKN020 M01/M05 A3035 RMK SC7 PRESRR SLP300
Loading
Personal Weather Stations






























Interactive Weather Map
Tropical Storm Tracking
New forecast layout! Learn more

10-Day Weather Forecast

Advertisements
Track Severe Weather on mobile